createdAt,value
2017-10-27T00:00:44.144Z,13.46
2017-10-27T00:01:53.842Z,13.43
2017-10-27T00:03:03.877Z,13.43
2017-10-27T00:04:14.454Z,13.39
2017-10-27T00:05:25.720Z,13.38
2017-10-27T00:06:35.922Z,13.47
2017-10-27T00:07:45.947Z,13.36
2017-10-27T00:08:55.675Z,13.36
2017-10-27T00:10:05.690Z,13.36
2017-10-27T00:11:15.734Z,13.41
2017-10-27T00:12:25.412Z,13.39
2017-10-27T00:13:34.475Z,13.38
2017-10-27T00:14:44.834Z,13.39
2017-10-27T00:15:54.177Z,13.44
2017-10-27T00:17:04.190Z,13.41
2017-10-27T00:18:13.538Z,13.43
2017-10-27T00:19:23.219Z,13.41
2017-10-27T00:20:32.904Z,13.41
2017-10-27T00:21:42.247Z,13.39
2017-10-27T00:22:51.957Z,13.39
2017-10-27T00:24:02.038Z,13.28
2017-10-27T00:25:11.773Z,13.43
2017-10-27T00:26:21.805Z,13.41
2017-10-27T00:27:31.494Z,13.47
2017-10-27T00:28:41.169Z,13.47
2017-10-27T00:29:51.191Z,13.43
2017-10-27T00:31:01.209Z,13.51
2017-10-27T00:32:11.563Z,13.47
2017-10-27T00:33:21.578Z,13.35
2017-10-27T00:34:31.262Z,13.41
2017-10-27T00:35:40.603Z,13.35
2017-10-27T00:36:50.282Z,13.38
2017-10-27T00:37:59.623Z,13.36
2017-10-27T00:39:08.983Z,13.36
2017-10-27T00:40:18.995Z,13.44
2017-10-27T00:41:29.015Z,13.41
2017-10-27T00:42:39.043Z,13.32
2017-10-27T00:43:49.195Z,13.43
2017-10-27T00:44:58.592Z,13.36
2017-10-27T00:46:08.295Z,13.29
2017-10-27T00:47:17.658Z,13.36
2017-10-27T00:48:27.340Z,13.29
2017-10-27T00:49:37.688Z,13.36
2017-10-27T00:50:46.694Z,13.39
2017-10-27T00:51:56.392Z,13.47
2017-10-27T00:53:06.418Z,13.41
2017-10-27T00:54:16.435Z,13.43
2017-10-27T00:55:26.455Z,13.41
2017-10-27T00:56:36.472Z,13.38
2017-10-27T00:57:45.820Z,13.38
2017-10-27T00:58:55.506Z,13.35
2017-10-27T01:00:05.193Z,13.31
2017-10-27T01:01:15.212Z,13.38
2017-10-27T01:02:24.889Z,13.38
2017-10-27T01:03:34.907Z,13.41
2017-10-27T01:04:44.250Z,13.44
2017-10-27T01:05:53.928Z,13.43
2017-10-27T01:07:03.939Z,13.39
2017-10-27T01:08:13.294Z,13.41
2017-10-27T01:09:22.984Z,13.44
2017-10-27T01:10:32.328Z,13.38
2017-10-27T01:11:42.350Z,13.43
2017-10-27T01:12:51.695Z,13.39
2017-10-27T01:14:01.715Z,13.44
2017-10-27T01:15:11.728Z,13.31
2017-10-27T01:16:21.744Z,13.35
2017-10-27T01:17:31.759Z,13.32
2017-10-27T01:18:41.777Z,13.27
2017-10-27T01:19:51.787Z,13.28
2017-10-27T01:21:01.802Z,13.28
2017-10-27T01:22:11.827Z,13.35
2017-10-27T01:23:21.839Z,13.35
2017-10-27T01:24:31.857Z,13.35
2017-10-27T01:25:41.541Z,13.32
2017-10-27T01:26:51.550Z,13.29
2017-10-27T01:28:00.901Z,13.32
2017-10-27T01:29:09.577Z,13.32
2017-10-27T01:30:19.928Z,13.28
2017-10-27T01:31:29.956Z,13.41
2017-10-27T01:32:40.020Z,13.38
2017-10-27T01:33:49.705Z,13.38
2017-10-27T01:34:59.070Z,13.38
2017-10-27T01:36:09.094Z,13.35
2017-10-27T01:37:19.144Z,13.27
2017-10-27T01:38:29.164Z,13.28
2017-10-27T01:39:38.852Z,13.27
2017-10-27T01:40:48.551Z,13.31
2017-10-27T01:41:58.575Z,13.25
2017-10-27T01:43:08.255Z,13.28
2017-10-27T01:44:18.632Z,13.24
2017-10-27T01:45:28.315Z,13.24
2017-10-27T01:46:38.689Z,13.25
2017-10-27T01:47:48.388Z,13.31
2017-10-27T01:48:58.071Z,13.35
2017-10-27T01:50:08.101Z,13.27
2017-10-27T01:51:18.142Z,13.25
2017-10-27T01:52:27.486Z,13.27
2017-10-27T01:53:37.521Z,13.24
2017-10-27T01:54:47.542Z,13.27
2017-10-27T01:55:57.565Z,13.22
2017-10-27T01:57:07.596Z,13.25
2017-10-27T01:58:17.274Z,13.17
2017-10-27T01:59:26.623Z,13.25
2017-10-27T02:00:36.637Z,13.1
2017-10-27T02:01:45.995Z,13.12
2017-10-27T02:02:55.691Z,13.12
2017-10-27T02:04:06.048Z,13.13
2017-10-27T02:05:16.431Z,13.09
2017-10-27T02:06:26.123Z,13.06
2017-10-27T02:07:35.475Z,13.1
2017-10-27T02:08:45.500Z,13.03
2017-10-27T02:09:55.525Z,13.06
2017-10-27T02:11:05.606Z,13.01
2017-10-27T02:12:15.297Z,13.03
2017-10-27T02:13:25.345Z,12.92
2017-10-27T02:14:35.074Z,12.94
2017-10-27T02:15:44.783Z,12.94
2017-10-27T02:16:54.472Z,12.96
2017-10-27T02:18:04.521Z,12.95
2017-10-27T02:19:13.872Z,12.88
2017-10-27T02:20:23.566Z,12.87
2017-10-27T02:21:33.614Z,12.89
2017-10-27T02:22:43.634Z,12.95
2017-10-27T02:23:53.667Z,12.85
2017-10-27T02:25:03.022Z,12.79
2017-10-27T02:26:12.709Z,12.8
2017-10-27T02:27:22.405Z,12.8
2017-10-27T02:28:32.435Z,12.74
2017-10-27T02:29:42.474Z,12.74
2017-10-27T02:30:52.497Z,12.76
2017-10-27T02:32:02.194Z,12.74
2017-10-27T02:33:11.902Z,12.74
2017-10-27T02:34:21.606Z,12.77
2017-10-27T02:35:31.633Z,12.73
2017-10-27T02:36:41.994Z,12.74
2017-10-27T02:37:52.390Z,12.76
2017-10-27T02:39:02.413Z,12.73
2017-10-27T02:40:12.447Z,12.66
2017-10-27T02:41:21.805Z,12.73
2017-10-27T02:42:31.820Z,12.76
2017-10-27T02:43:41.836Z,12.67
2017-10-27T02:44:51.860Z,12.63
2017-10-27T02:46:01.554Z,12.58
2017-10-27T02:47:11.939Z,12.62
2017-10-27T02:48:21.969Z,12.7
2017-10-27T02:49:31.323Z,12.62
2017-10-27T02:50:41.020Z,12.61
2017-10-27T02:51:51.394Z,12.69
2017-10-27T02:53:01.092Z,12.66
2017-10-27T02:54:11.472Z,12.59
2017-10-27T02:55:21.530Z,12.63
2017-10-27T02:56:31.881Z,12.66
2017-10-27T02:57:41.903Z,12.66
2017-10-27T02:58:51.601Z,12.67
2017-10-27T03:00:01.960Z,12.62
2017-10-27T03:01:11.990Z,12.7
2017-10-27T03:02:22.021Z,12.62
2017-10-27T03:03:32.377Z,12.63
2017-10-27T03:04:42.395Z,12.67
2017-10-27T03:05:52.766Z,12.62
2017-10-27T03:07:02.789Z,12.56
2017-10-27T03:08:12.816Z,12.61
2017-10-27T03:09:22.544Z,12.62
2017-10-27T03:10:32.582Z,12.66
2017-10-27T03:11:41.930Z,12.63
2017-10-27T03:12:51.958Z,12.61
2017-10-27T03:14:01.661Z,12.63
2017-10-27T03:15:11.345Z,12.62
2017-10-27T03:16:21.378Z,12.61
2017-10-27T03:17:31.414Z,12.54
2017-10-27T03:18:41.430Z,12.59
2017-10-27T03:19:50.450Z,12.61
2017-10-27T03:21:00.798Z,12.63
2017-10-27T03:22:10.839Z,12.67
2017-10-27T03:23:21.204Z,12.61
2017-10-27T03:24:30.897Z,12.59
2017-10-27T03:25:40.581Z,12.63
2017-10-27T03:26:50.933Z,12.63
2017-10-27T03:28:00.619Z,12.52
2017-10-27T03:29:10.986Z,12.55
2017-10-27T03:30:21.041Z,12.55
2017-10-27T03:31:31.388Z,12.48
2017-10-27T03:32:41.398Z,12.59
2017-10-27T03:33:51.090Z,12.44
2017-10-27T03:35:01.117Z,12.46
2017-10-27T03:36:11.133Z,12.44
2017-10-27T03:37:21.157Z,12.46
2017-10-27T03:38:31.196Z,12.49
2017-10-27T03:39:40.545Z,12.37
2017-10-27T03:40:50.563Z,12.34
2017-10-27T03:42:00.929Z,12.33
2017-10-27T03:43:11.305Z,12.34
2017-10-27T03:44:20.652Z,12.33
2017-10-27T03:45:30.347Z,12.29
2017-10-27T03:46:40.029Z,12.25
2017-10-27T03:47:49.393Z,12.33
2017-10-27T03:48:59.095Z,12.18
2017-10-27T03:50:09.469Z,12.16
2017-10-27T03:51:19.824Z,12.18
2017-10-27T03:52:29.181Z,12.16
2017-10-27T03:53:39.233Z,12.29
2017-10-27T03:54:48.584Z,12.29
2017-10-27T03:55:58.594Z,12.26
2017-10-27T03:57:08.272Z,12.26
2017-10-27T03:58:17.615Z,12.15
2017-10-27T03:59:27.301Z,12.25
2017-10-27T04:00:36.981Z,12.16
2017-10-27T04:01:47.365Z,12.21
2017-10-27T04:02:57.395Z,12.21
2017-10-27T04:04:07.750Z,12.22
2017-10-27T04:05:17.093Z,12.13
2017-10-27T04:06:27.124Z,12.22
2017-10-27T04:07:36.481Z,12.23
2017-10-27T04:08:45.905Z,12.19
2017-10-27T04:09:56.297Z,12.19
2017-10-27T04:11:06.312Z,12.26
2017-10-27T04:12:16.424Z,12.12
2017-10-27T04:13:26.486Z,12.22
2017-10-27T04:14:36.547Z,12.19
2017-10-27T04:15:46.556Z,12.11
2017-10-27T04:16:56.919Z,12.08
2017-10-27T04:18:07.018Z,12.11
2017-10-27T04:19:17.184Z,11.98
2017-10-27T04:20:27.245Z,12.01
2017-10-27T04:21:36.920Z,12.04
2017-10-27T04:22:46.606Z,12.05
2017-10-27T04:23:56.807Z,12.03
2017-10-27T04:25:07.492Z,12.05
2017-10-27T04:26:18.319Z,12.05
2017-10-27T04:27:28.125Z,12.12
2017-10-27T04:28:37.943Z,12.07
2017-10-27T04:29:47.633Z,12.05
2017-10-27T04:30:57.776Z,12.13
2017-10-27T04:32:07.526Z,12.12
2017-10-27T04:33:17.551Z,12.07
2017-10-27T04:34:27.904Z,12.11
2017-10-27T04:35:38.271Z,12.19
2017-10-27T04:36:47.978Z,12.21
2017-10-27T04:37:57.992Z,12.08
2017-10-27T04:39:08.347Z,12.08
2017-10-27T04:40:18.365Z,12.11
2017-10-27T04:41:27.741Z,12.13
2017-10-27T04:42:38.118Z,12.15
2017-10-27T04:43:47.877Z,12.16
2017-10-27T04:44:57.921Z,12.13
2017-10-27T04:46:07.990Z,12.12
2017-10-27T04:47:17.665Z,12.19
2017-10-27T04:48:27.356Z,12.12
2017-10-27T04:49:37.374Z,12.19
2017-10-27T04:50:47.158Z,12.19
2017-10-27T04:51:56.904Z,12.16
2017-10-27T04:53:06.956Z,12.18
2017-10-27T04:54:17.342Z,12.18
2017-10-27T04:55:27.698Z,12.18
2017-10-27T04:56:37.779Z,12.18
2017-10-27T04:57:47.805Z,12.18
2017-10-27T04:58:57.835Z,12.21
2017-10-27T05:00:07.921Z,12.15
2017-10-27T05:01:17.608Z,12.16
2017-10-27T05:02:26.954Z,12.18
2017-10-27T05:03:37.003Z,12.15
2017-10-27T05:04:47.409Z,12.21
2017-10-27T05:05:57.117Z,12.19
2017-10-27T05:07:07.154Z,12.15
2017-10-27T05:08:17.189Z,12.13
2017-10-27T05:09:26.881Z,12.13
2017-10-27T05:10:36.577Z,12.21
2017-10-27T05:11:46.599Z,12.13
2017-10-27T05:12:56.657Z,12.15
2017-10-27T05:14:06.694Z,12.04
2017-10-27T05:15:16.048Z,12.16
2017-10-27T05:16:25.724Z,12.08
2017-10-27T05:17:35.493Z,12
2017-10-27T05:18:45.191Z,11.96
2017-10-27T05:19:54.531Z,12.03
2017-10-27T05:21:04.564Z,11.93
2017-10-27T05:22:13.592Z,11.94
2017-10-27T05:23:23.637Z,11.93
2017-10-27T05:24:33.330Z,11.88
2017-10-27T05:25:43.377Z,11.88
2017-10-27T05:26:53.060Z,11.88
2017-10-27T05:28:03.075Z,11.85
2017-10-27T05:29:13.098Z,11.84
2017-10-27T05:30:22.788Z,11.78
2017-10-27T05:31:32.131Z,11.75
2017-10-27T05:32:42.405Z,11.67
2017-10-27T05:33:52.983Z,11.72
2017-10-27T05:35:03.427Z,11.67
2017-10-27T05:36:13.195Z,11.64
2017-10-27T05:37:22.877Z,11.62
2017-10-27T05:38:33.013Z,11.6
2017-10-27T05:39:43.114Z,11.54
2017-10-27T05:40:52.845Z,11.49
2017-10-27T05:42:02.539Z,11.56
2017-10-27T05:43:12.921Z,11.54
2017-10-27T05:44:23.434Z,11.56
2017-10-27T05:45:33.220Z,11.53
2017-10-27T05:46:42.589Z,11.57
2017-10-27T05:47:52.684Z,11.49
2017-10-27T05:49:02.727Z,11.44
2017-10-27T05:50:12.470Z,11.53
2017-10-27T05:51:22.178Z,11.41
2017-10-27T05:52:31.870Z,11.49
2017-10-27T05:53:41.905Z,11.48
2017-10-27T05:54:52.265Z,11.39
2017-10-27T05:56:01.956Z,11.42
2017-10-27T05:57:11.653Z,11.36
2017-10-27T05:58:21.685Z,11.44
2017-10-27T05:59:31.709Z,11.41
2017-10-27T06:00:41.396Z,11.42
2017-10-27T06:01:51.414Z,11.39
2017-10-27T06:03:01.464Z,11.49
2017-10-27T06:04:11.811Z,11.48
2017-10-27T06:05:21.484Z,11.57
2017-10-27T06:06:31.164Z,11.53
2017-10-27T06:07:41.197Z,11.57
2017-10-27T06:08:50.874Z,11.51
2017-10-27T06:10:00.566Z,11.63
2017-10-27T06:11:10.272Z,11.57
2017-10-27T06:12:20.629Z,11.59
2017-10-27T06:13:30.979Z,11.6
2017-10-27T06:14:40.418Z,11.57
2017-10-27T06:15:50.765Z,11.51
2017-10-27T06:17:01.131Z,11.51
2017-10-27T06:18:10.464Z,11.41
2017-10-27T06:19:20.488Z,11.44
2017-10-27T06:20:30.845Z,11.35
2017-10-27T06:21:40.194Z,11.31
2017-10-27T06:22:50.206Z,11.23
2017-10-27T06:23:59.908Z,11.38
2017-10-27T06:25:09.939Z,11.36
2017-10-27T06:26:20.122Z,11.33
2017-10-27T06:27:30.161Z,11.26
2017-10-27T06:28:40.518Z,11.16
2017-10-27T06:29:49.866Z,11.17
2017-10-27T06:30:59.901Z,11.12
2017-10-27T06:32:09.916Z,11.21
2017-10-27T06:33:19.263Z,11.08
2017-10-27T06:34:28.940Z,11.08
2017-10-27T06:35:38.312Z,11.08
2017-10-27T06:36:48.360Z,11.08
2017-10-27T06:37:57.710Z,11.03
2017-10-27T06:39:07.388Z,11.09
2017-10-27T06:40:17.420Z,11.19
2017-10-27T06:41:27.293Z,11.08
2017-10-27T06:42:37.850Z,11.08
2017-10-27T06:43:47.963Z,11.06
2017-10-27T06:44:57.647Z,11.05
2017-10-27T06:46:07.324Z,11.11
2017-10-27T06:47:17.381Z,11.08
2017-10-27T06:48:27.219Z,11.11
2017-10-27T06:49:37.366Z,11.03
2017-10-27T06:50:46.828Z,11.05
2017-10-27T06:51:57.079Z,11.17
2017-10-27T06:53:06.578Z,11.19
2017-10-27T06:54:16.352Z,11.24
2017-10-27T06:55:26.577Z,11.39
2017-10-27T06:56:36.325Z,11.28
2017-10-27T06:57:46.495Z,11.27
2017-10-27T06:58:56.457Z,11.24
2017-10-27T07:00:06.619Z,11.3
2017-10-27T07:01:17.128Z,11.39
2017-10-27T07:02:27.748Z,11.44
2017-10-27T07:03:37.485Z,11.26
2017-10-27T07:04:47.983Z,11.35
2017-10-27T07:05:57.903Z,11.36
2017-10-27T07:07:08.066Z,11.49
2017-10-27T07:08:17.841Z,11.49
2017-10-27T07:09:28.065Z,11.48
2017-10-27T07:10:37.873Z,11.6
2017-10-27T07:11:48.379Z,11.54
2017-10-27T07:12:58.295Z,11.56
2017-10-27T07:14:08.413Z,11.57
2017-10-27T07:15:18.777Z,11.39
2017-10-27T07:16:28.461Z,11.39
2017-10-27T07:17:38.481Z,11.45
2017-10-27T07:18:48.848Z,11.36
2017-10-27T07:19:58.549Z,11.35
2017-10-27T07:21:08.924Z,11.28
2017-10-27T07:22:18.717Z,11.33
2017-10-27T07:23:28.727Z,11.28
2017-10-27T07:24:38.418Z,11.36
2017-10-27T07:25:47.424Z,11.3
2017-10-27T07:26:57.127Z,11.28
2017-10-27T07:28:07.000Z,11.39
2017-10-27T07:29:16.486Z,11.33
2017-10-27T07:30:25.832Z,11.36
2017-10-27T07:31:35.859Z,11.39
2017-10-27T07:32:45.705Z,11.31
2017-10-27T07:33:55.599Z,11.31
2017-10-27T07:35:05.309Z,11.41
2017-10-27T07:36:15.021Z,11.33
2017-10-27T07:37:24.740Z,11.36
2017-10-27T07:38:34.100Z,11.35
2017-10-27T07:39:44.151Z,11.39
2017-10-27T07:40:54.176Z,11.31
2017-10-27T07:42:04.199Z,11.44
2017-10-27T07:43:13.922Z,11.39
2017-10-27T07:44:23.958Z,11.41
2017-10-27T07:45:34.010Z,11.46
2017-10-27T07:46:43.380Z,11.46
2017-10-27T07:47:53.064Z,11.44
2017-10-27T07:49:03.083Z,11.42
2017-10-27T07:50:13.457Z,11.44
2017-10-27T07:51:23.807Z,11.39
2017-10-27T07:52:33.860Z,11.48
2017-10-27T07:53:44.234Z,11.44
2017-10-27T07:54:53.936Z,11.59
2017-10-27T07:56:03.610Z,11.49
2017-10-27T07:57:13.645Z,11.54
2017-10-27T07:58:22.991Z,11.59
2017-10-27T07:59:32.688Z,11.56
2017-10-27T08:00:43.044Z,11.67
2017-10-27T08:01:53.544Z,11.63
2017-10-27T08:03:04.085Z,11.82
2017-10-27T08:04:14.257Z,11.84
2017-10-27T08:05:23.612Z,11.87
2017-10-27T08:06:33.029Z,11.85
2017-10-27T08:07:42.730Z,11.93
2017-10-27T08:08:52.811Z,11.84
2017-10-27T08:10:03.224Z,11.84
2017-10-27T08:11:12.910Z,11.82
2017-10-27T08:12:22.935Z,11.84
2017-10-27T08:13:33.037Z,11.85
2017-10-27T08:14:43.415Z,11.85
2017-10-27T08:15:53.846Z,12.01
2017-10-27T08:17:04.289Z,11.93
2017-10-27T08:18:13.987Z,11.96
2017-10-27T08:19:24.351Z,11.87
2017-10-27T08:20:34.718Z,11.96
2017-10-27T08:21:44.400Z,11.88
2017-10-27T08:22:54.421Z,11.93
2017-10-27T08:24:04.793Z,12
2017-10-27T08:25:14.821Z,12.03
2017-10-27T08:26:24.853Z,12.05
2017-10-27T08:27:34.217Z,12.07
2017-10-27T08:28:43.604Z,12.07
2017-10-27T08:29:53.630Z,12.03
2017-10-27T08:31:03.989Z,12.04
2017-10-27T08:32:13.338Z,12.07
2017-10-27T08:33:23.695Z,12.16
2017-10-27T08:34:33.369Z,12.16
2017-10-27T08:35:43.394Z,12.08
2017-10-27T08:36:53.417Z,12.26
2017-10-27T08:38:04.006Z,12.34
2017-10-27T08:39:14.118Z,12.44
2017-10-27T08:40:24.068Z,12.34
2017-10-27T08:41:34.408Z,12.48
2017-10-27T08:42:44.634Z,12.36
2017-10-27T08:43:54.809Z,12.54
2017-10-27T08:45:04.872Z,12.36
2017-10-27T08:46:14.564Z,12.55
2017-10-27T08:47:24.255Z,12.61
2017-10-27T08:48:34.293Z,12.52
2017-10-27T08:49:44.416Z,12.69
2017-10-27T08:50:54.469Z,12.81
2017-10-27T08:52:04.185Z,12.92
2017-10-27T08:53:13.551Z,12.8
2017-10-27T08:54:23.260Z,12.81
2017-10-27T08:55:33.278Z,12.89
2017-10-27T08:56:43.312Z,12.76
2017-10-27T08:57:53.014Z,12.71
2017-10-27T08:59:03.039Z,12.59
2017-10-27T09:00:12.764Z,12.63
2017-10-27T09:01:23.143Z,12.46
2017-10-27T09:02:33.160Z,12.46
2017-10-27T09:03:42.851Z,12.62
2017-10-27T09:04:52.875Z,12.92
2017-10-27T09:06:02.953Z,12.94
2017-10-27T09:07:12.652Z,12.84
2017-10-27T09:08:23.050Z,12.89
2017-10-27T09:09:32.446Z,12.98
2017-10-27T09:10:42.467Z,13.1
2017-10-27T09:11:52.143Z,13.06
2017-10-27T09:13:02.169Z,13.09
2017-10-27T09:14:12.190Z,13.06
2017-10-27T09:15:21.887Z,13.13
2017-10-27T09:16:31.934Z,13.21
2017-10-27T09:17:42.307Z,13.17
2017-10-27T09:18:52.028Z,13.03
2017-10-27T09:20:01.763Z,13.1
2017-10-27T09:21:11.902Z,13.21
2017-10-27T09:22:21.577Z,13.32
2017-10-27T09:23:31.604Z,13.28
2017-10-27T09:24:40.989Z,13.29
2017-10-27T09:25:51.014Z,13.43
2017-10-27T09:27:00.372Z,13.43
2017-10-27T09:28:10.472Z,13.29
2017-10-27T09:29:20.850Z,13.27
2017-10-27T09:30:30.550Z,13.29
2017-10-27T09:31:40.283Z,13.53
2017-10-27T09:32:50.319Z,13.25
2017-10-27T09:34:00.685Z,13.43
2017-10-27T09:35:10.358Z,13.39
2017-10-27T09:36:20.053Z,13.41
2017-10-27T09:37:30.193Z,13.55
2017-10-27T09:38:40.751Z,13.5
2017-10-27T09:39:51.187Z,13.8
2017-10-27T09:41:00.923Z,13.93
2017-10-27T09:42:11.115Z,13.94
2017-10-27T09:43:21.199Z,13.73
2017-10-27T09:44:31.802Z,13.73
2017-10-27T09:45:42.485Z,13.8
2017-10-27T09:46:52.315Z,14.08
2017-10-27T09:48:02.081Z,14.09
2017-10-27T09:49:11.956Z,14.02
2017-10-27T09:50:21.368Z,13.93
2017-10-27T09:51:31.111Z,14.09
2017-10-27T09:52:41.357Z,13.91
2017-10-27T09:53:51.573Z,13.98
2017-10-27T09:55:00.650Z,14.17
2017-10-27T09:56:10.170Z,14.08
2017-10-27T09:57:20.745Z,13.9
2017-10-27T09:58:30.508Z,14.06
2017-10-27T09:59:40.256Z,14.13
2017-10-27T10:00:49.756Z,14.21
2017-10-27T10:01:59.875Z,14.17
2017-10-27T10:03:10.273Z,14.17
2017-10-27T10:04:20.495Z,14.23
2017-10-27T10:05:30.033Z,14.24
2017-10-27T10:06:39.756Z,14.12
2017-10-27T10:07:50.183Z,13.93
2017-10-27T10:09:00.024Z,13.81
2017-10-27T10:10:09.794Z,14.01
2017-10-27T10:11:19.941Z,14.17
2017-10-27T10:12:30.506Z,14.09
2017-10-27T10:13:40.330Z,13.93
2017-10-27T10:14:50.877Z,13.9
2017-10-27T10:16:01.429Z,13.86
2017-10-27T10:17:11.626Z,14.11
2017-10-27T10:18:21.443Z,14.26
2017-10-27T10:19:32.041Z,14.54
2017-10-27T10:20:42.289Z,14.86
2017-10-27T10:21:52.756Z,14.9
2017-10-27T10:23:03.042Z,14.82
2017-10-27T10:24:12.944Z,14.74
2017-10-27T10:25:23.461Z,14.79
2017-10-27T10:26:33.344Z,14.53
2017-10-27T10:27:43.156Z,14.42
2017-10-27T10:28:53.333Z,14.39
2017-10-27T10:30:03.573Z,14.69
2017-10-27T10:31:14.020Z,14.74
2017-10-27T10:32:24.531Z,15.01
2017-10-27T10:33:34.736Z,14.75
2017-10-27T10:34:45.155Z,14.53
2017-10-27T10:35:54.955Z,14.42
2017-10-27T10:37:05.111Z,14.63
2017-10-27T10:38:15.571Z,14.87
2017-10-27T10:39:25.766Z,14.83
2017-10-27T10:40:36.004Z,14.69
2017-10-27T10:41:45.765Z,14.31
2017-10-27T10:42:55.605Z,14.23
2017-10-27T10:44:06.177Z,14.19
2017-10-27T10:45:15.963Z,14.3
2017-10-27T10:46:25.795Z,14.39
2017-10-27T10:47:36.384Z,14.59
2017-10-27T10:48:46.168Z,14.66
2017-10-27T10:49:55.574Z,14.66
2017-10-27T10:51:05.745Z,14.75
2017-10-27T10:52:15.491Z,14.8
2017-10-27T10:53:24.943Z,15.04
2017-10-27T10:54:34.833Z,14.97
2017-10-27T10:55:44.590Z,15
2017-10-27T10:56:54.754Z,15.03
2017-10-27T10:58:04.694Z,15.01
2017-10-27T10:59:14.829Z,14.79
2017-10-27T11:00:24.569Z,14.64
2017-10-27T11:01:35.176Z,14.9
2017-10-27T11:02:45.321Z,15
2017-10-27T11:03:55.470Z,15.11
2017-10-27T11:05:05.706Z,15.15
2017-10-27T11:06:15.841Z,15.16
2017-10-27T11:07:25.615Z,15.3
2017-10-27T11:08:35.489Z,15.53
2017-10-27T11:09:45.616Z,15.46
2017-10-27T11:10:55.800Z,15.31
2017-10-27T11:12:05.283Z,15.05
2017-10-27T11:13:15.358Z,14.83
2017-10-27T11:14:25.572Z,14.85
2017-10-27T11:15:35.518Z,14.59
2017-10-27T11:16:45.603Z,14.26
2017-10-27T11:17:55.762Z,14.16
2017-10-27T11:19:05.467Z,14.08
2017-10-27T11:20:15.036Z,13.68
2017-10-27T11:21:25.195Z,13.5
2017-10-27T11:22:35.787Z,13.17
2017-10-27T11:23:45.888Z,13.01
2017-10-27T11:24:55.318Z,12.95
2017-10-27T11:26:05.088Z,12.76
2017-10-27T11:27:14.832Z,12.61
2017-10-27T11:28:24.893Z,12.63
2017-10-27T11:29:34.239Z,12.46
2017-10-27T11:30:43.920Z,12.46
2017-10-27T11:31:53.613Z,12.25
2017-10-27T11:33:03.297Z,12.26
2017-10-27T11:34:13.307Z,12.12
2017-10-27T11:35:22.995Z,12.07
2017-10-27T11:36:33.358Z,12.07
2017-10-27T11:37:43.700Z,12.04
2017-10-27T11:38:53.719Z,12.23
2017-10-27T11:40:03.749Z,12.25
2017-10-27T11:41:13.434Z,12.33
2017-10-27T11:42:23.800Z,12.33
2017-10-27T11:43:33.560Z,12.54
2017-10-27T11:44:43.570Z,12.76
2017-10-27T11:45:53.601Z,12.85
2017-10-27T11:47:03.621Z,12.91
2017-10-27T11:48:14.007Z,13.06
2017-10-27T11:49:23.685Z,13.12
2017-10-27T11:50:33.026Z,13.17
2017-10-27T11:51:42.375Z,13.1
2017-10-27T11:52:51.733Z,13.01
2017-10-27T11:54:01.740Z,13.1
2017-10-27T11:55:11.759Z,12.92
2017-10-27T11:56:21.780Z,12.79
2017-10-27T11:57:31.472Z,12.77
2017-10-27T11:58:41.159Z,12.73
2017-10-27T11:59:50.519Z,12.61
2017-10-27T12:01:00.525Z,12.58
2017-10-27T12:02:10.560Z,12.73
2017-10-27T12:03:20.586Z,12.84
2017-10-27T12:04:29.932Z,12.8
2017-10-27T12:05:39.963Z,12.88
2017-10-27T12:06:49.639Z,12.92
2017-10-27T12:08:00.013Z,12.81
2017-10-27T12:09:09.532Z,12.95
2017-10-27T12:10:19.217Z,13.13
2017-10-27T12:11:29.278Z,13.01
2017-10-27T12:12:39.289Z,13.22
2017-10-27T12:13:49.311Z,13.36
2017-10-27T12:14:58.739Z,13.41
2017-10-27T12:16:08.773Z,13.39
2017-10-27T12:17:18.794Z,13.39
2017-10-27T12:18:28.145Z,13.57
2017-10-27T12:19:37.834Z,13.55
2017-10-27T12:20:47.860Z,13.83
2017-10-27T12:21:58.213Z,13.76
2017-10-27T12:23:08.246Z,13.83
2017-10-27T12:24:17.934Z,13.71
2017-10-27T12:25:28.011Z,13.73
2017-10-27T12:26:37.693Z,13.86
2017-10-27T12:27:47.735Z,13.73
2017-10-27T12:28:57.079Z,13.79
2017-10-27T12:30:06.763Z,13.51
2017-10-27T12:31:16.828Z,13.41
2017-10-27T12:32:26.525Z,13.32
2017-10-27T12:33:36.560Z,13.22
2017-10-27T12:34:46.271Z,13.25
2017-10-27T12:35:56.319Z,13.36
2017-10-27T12:37:06.338Z,13.35
2017-10-27T12:38:15.358Z,13.32
2017-10-27T12:39:25.707Z,13.5
2017-10-27T12:40:34.717Z,13.66
2017-10-27T12:41:44.070Z,13.72
2017-10-27T12:42:54.096Z,13.83
2017-10-27T12:44:03.800Z,13.91
2017-10-27T12:45:13.490Z,13.76
2017-10-27T12:46:23.856Z,13.84
2017-10-27T12:47:33.234Z,13.91
2017-10-27T12:48:43.263Z,13.81
2017-10-27T12:49:53.279Z,14.05
2017-10-27T12:51:02.955Z,14.06
2017-10-27T12:52:12.654Z,13.76
2017-10-27T12:53:22.693Z,13.75
2017-10-27T12:54:32.884Z,13.59
2017-10-27T12:55:43.020Z,13.57
2017-10-27T12:56:52.753Z,13.57
2017-10-27T12:58:02.925Z,13.61
2017-10-27T12:59:12.791Z,13.69
2017-10-27T13:00:22.914Z,13.79
2017-10-27T13:01:33.084Z,14.06
2017-10-27T13:02:42.952Z,14.2
2017-10-27T13:03:53.077Z,14.2
2017-10-27T13:05:03.573Z,14.24
2017-10-27T13:06:13.520Z,14.24
2017-10-27T13:07:23.262Z,14.24
2017-10-27T13:08:33.093Z,14.26
2017-10-27T13:09:43.366Z,14.23
2017-10-27T13:10:53.850Z,14.35
2017-10-27T13:12:03.687Z,14.3
2017-10-27T13:13:14.332Z,14.57
2017-10-27T13:14:24.499Z,14.66
2017-10-27T13:15:34.347Z,15.03
2017-10-27T13:16:44.269Z,15.25
2017-10-27T13:17:54.088Z,15.34
2017-10-27T13:19:04.244Z,15.28
2017-10-27T13:20:13.779Z,15.2
2017-10-27T13:21:23.905Z,15.25
2017-10-27T13:22:33.342Z,15.01
2017-10-27T13:23:42.892Z,15.12
2017-10-27T13:24:53.069Z,15.16
2017-10-27T13:26:02.905Z,15.15
2017-10-27T13:27:13.163Z,15.25
2017-10-27T13:28:22.950Z,15.31
2017-10-27T13:29:32.685Z,15.33
2017-10-27T13:30:42.844Z,15.23
2017-10-27T13:31:53.025Z,15.15
2017-10-27T13:33:03.192Z,15.04
2017-10-27T13:34:13.402Z,15
2017-10-27T13:35:23.766Z,15
2017-10-27T13:36:34.228Z,14.9
2017-10-27T13:37:44.412Z,14.78
2017-10-27T13:38:54.501Z,14.78
2017-10-27T13:40:04.272Z,14.67
2017-10-27T13:41:14.168Z,14.8
2017-10-27T13:42:24.658Z,14.78
2017-10-27T13:43:33.793Z,14.67
2017-10-27T13:44:43.351Z,14.61
2017-10-27T13:45:53.059Z,14.64
2017-10-27T13:47:03.182Z,14.69
2017-10-27T13:48:13.670Z,14.63
2017-10-27T13:49:23.747Z,14.64
2017-10-27T13:50:33.868Z,14.66
2017-10-27T13:51:43.697Z,14.53
2017-10-27T13:52:53.461Z,14.78
2017-10-27T13:54:03.595Z,14.87
2017-10-27T13:55:14.150Z,15.22
2017-10-27T13:56:24.006Z,15.28
2017-10-27T13:57:34.120Z,15.38
2017-10-27T13:58:44.022Z,15.56
2017-10-27T13:59:54.234Z,15.56
2017-10-27T14:01:03.997Z,15.52
2017-10-27T14:02:14.091Z,15.51
2017-10-27T14:03:23.326Z,15.38
2017-10-27T14:04:32.742Z,15.38
2017-10-27T14:05:42.527Z,15.28
2017-10-27T14:06:53.165Z,15.16
2017-10-27T14:08:03.266Z,14.98
2017-10-27T14:09:13.093Z,14.72
2017-10-27T14:10:22.903Z,14.53
2017-10-27T14:11:32.995Z,14.38
2017-10-27T14:12:43.112Z,14.34
2017-10-27T14:13:53.695Z,14.26
2017-10-27T14:15:03.057Z,14.27
2017-10-27T14:16:12.536Z,14.34
2017-10-27T14:17:23.104Z,14.31
2017-10-27T14:18:32.865Z,14.31
2017-10-27T14:19:42.657Z,14.11
2017-10-27T14:20:53.235Z,14.13
2017-10-27T14:22:03.320Z,14.11
2017-10-27T14:23:13.482Z,14.02
2017-10-27T14:24:23.241Z,14.09
2017-10-27T14:25:32.993Z,14.01
2017-10-27T14:26:42.757Z,13.91
2017-10-27T14:27:52.991Z,14.06
2017-10-27T14:29:03.143Z,13.99
2017-10-27T14:30:13.504Z,13.9
2017-10-27T14:31:23.296Z,13.73
2017-10-27T14:32:33.789Z,13.79
2017-10-27T14:33:43.713Z,13.83
2017-10-27T14:34:53.804Z,13.86
2017-10-27T14:36:03.596Z,13.87
2017-10-27T14:37:12.989Z,13.94
2017-10-27T14:38:22.745Z,14.05
2017-10-27T14:39:33.290Z,14.27
2017-10-27T14:40:43.792Z,14.29
2017-10-27T14:41:53.898Z,14.36
2017-10-27T14:43:03.328Z,14.31
2017-10-27T14:44:13.547Z,14.19
2017-10-27T14:45:23.669Z,14.26
2017-10-27T14:46:33.421Z,14.23
2017-10-27T14:47:43.536Z,14.23
2017-10-27T14:48:54.291Z,14.05
2017-10-27T14:50:04.086Z,14.11
2017-10-27T14:51:14.274Z,13.91
2017-10-27T14:52:24.036Z,13.93
2017-10-27T14:53:34.131Z,13.88
2017-10-27T14:54:44.627Z,13.8
2017-10-27T14:55:55.140Z,13.96
2017-10-27T14:57:05.258Z,14.06
2017-10-27T14:58:15.400Z,14.13
2017-10-27T14:59:25.179Z,14.09
2017-10-27T15:00:34.967Z,13.99
2017-10-27T15:01:45.063Z,13.93
2017-10-27T15:02:55.264Z,13.75